Idabel, OK

4:23 PM CST on February 07, 2016 (GMT -0600)
Stone Haven | | Change Station
CLOSE
Current Station
Personal Weather Station
Location: Idabel, OK
Elevation: 489 ft
Nearby Weather Stations
Active Advisory: Lake Wind Advisory

Elev 489 ft 33.87 °N, 94.83 °W | Updated 6 seconds ago

Clear
Clear
61.6 °F
Feels Like 61.6 °F
N
4.0
Wind Variable Wind from SW
Gusts 7.0 mph

Today
High -- | Low -- °F
--% Chance of Precip.
Yesterday
High -- | Low -- °F
Precip. -- in
Pressure 30.09 in
Visibility 10.0 miles
Clouds Clear
Dew Point 36 °F
Humidity 38%
Rainfall 0.00 in
Snow Depth Not available.
7:11 AM 5:55 PM
Waning Crescent, 1% visible
METAR K4O4 072215Z AUTO 29011KT 10SM CLR 16/00 A3009 RMK AO2
Pressure 30.09 in
Visibility 10.0 miles
Clouds Clear
Dew Point 36 °F
Humidity 38%
Rainfall 0.00 in
Snow Depth Not available.
7:11 AM 5:55 PM
Waning Crescent, 1% visible
METAR K4O4 072215Z AUTO 29011KT 10SM CLR 16/00 A3009 RMK AO2

10-Day Weather Forecast

Almanac

Astronomy

Feb. 07, 2016 Rise Set
Actual Time
Civil Twilight
Nautical Twilight
Astronomical Twilight
Moon
Length of Visible Light
Length of Day
Tomorrow will be .
, % of the Moon is Illuminated

Today's Extremes

State Highs State Lows

Community

WunderPhotos

Upload Photos

1,891,318 photos uploaded!

WunderBlog® & News

Nearby

Air Quality

  Air Quality AQ Index Pollutant
Not available.

Snow Depth

Station Depth Elevation

Earthquake Activity

City Distance Mag. Time & Date
Minimum magnitude displayed is 2.5.

Coastal Water Temperatures

Place Temperature

Stations

Nearby Weather Stations

Station Location Temp. Windchill Dew Point Humidity Wind Precip. Elev Updated Type
                   

Watches & Warnings

Lake Wind Advisory
Issued: 3:25 PM CST Feb. 7, 2016 – National Weather Service

... Lake Wind Advisory in effect from 6 am to 6 PM CST Monday...

The National Weather Service in Shreveport has issued a lake Wind
Advisory... which is in effect from 6 am to 6 PM CST Monday.

* Event... a tight pressure gradient will be in place Monday across
the entire four state region... behind the passage of a cold
front tonight. Northwest winds will increase to 15 to 25 mph
with gusts to 35 to 40 mph by daybreak... and persist through
much of the day before diminishing by sunset.

* Timing... from 6 am to 6 PM CST Monday.

* Impact... boaters should exercise caution on area lakes due to
rough conditions.

Precautionary/preparedness actions...

A lake Wind Advisory indicates that winds will cause rough chop
on area lakes. Small boats will be especially prone to capsizing.



15